Time;durP1;ratioP1;P1;durP2;ratioP2;P2;SDS_P1;SDS_P2;PMS_P1;PMS_P2;Temp;Humidity;BMP_temperature;BMP_pressure;BME280_temperature;BME280_humidity;BME280_pressure;Samples;Min_cycle;Max_cycle;Signal;HPM_P1;HPM_P2
2021/06/09 14:14:35;;;;;;;0.40;0.30;;;16.70;99.90;;;;;;4971381;28;20434;-76
2021/06/09 14:17:19;;;;;;;0.40;0.30;;;16.80;99.90;;;;;;4989477;28;20493;-74
2021/06/09 14:19:54;;;;;;;0.40;0.30;;;16.80;99.90;;;;;;4973900;28;20508;-75
2021/06/09 14:22:26;;;;;;;0.40;0.20;;;16.90;99.90;;;;;;4990371;28;20434;-74
2021/06/09 14:24:53;;;;;;;0.40;0.20;;;16.90;99.90;;;;;;4990497;28;20391;-73
2021/06/09 14:27:19;;;;;;;0.40;0.20;;;17.00;99.90;;;;;;4991905;28;20834;-75
2021/06/09 14:30:20;;;;;;;0.40;0.20;;;17.00;99.90;;;;;;4990339;28;20419;-75
2021/06/09 14:33:07;;;;;;;0.60;0.40;;;17.10;99.90;;;;;;4937355;28;20430;-76
2021/06/09 14:35:45;;;;;;;0.40;0.20;;;17.30;99.90;;;;;;4990852;28;20939;-75
2021/06/09 14:38:17;;;;;;;0.40;0.20;;;17.30;99.90;;;;;;4991503;28;20415;-75
2021/06/09 14:40:43;;;;;;;0.40;0.28;;;17.50;99.90;;;;;;4988696;28;20457;-75
2021/06/09 14:43:12;;;;;;;0.40;0.25;;;17.70;99.90;;;;;;4989552;28;20461;-75
2021/06/09 14:45:40;;;;;;;0.40;0.30;;;18.00;99.90;;;;;;4990928;28;20398;-75
2021/06/09 14:51:09;;;;;;;0.40;0.20;;;18.50;99.90;;;;;;4990158;28;20415;-74
2021/06/09 14:53:35;;;;;;;0.40;0.20;;;18.90;99.90;;;;;;4973639;28;20878;-74
2021/06/09 14:56:01;;;;;;;0.40;0.30;;;18.80;99.90;;;;;;4999349;28;20896;-74
2021/06/09 14:58:27;;;;;;;0.40;0.20;;;18.60;99.90;;;;;;4992969;28;20569;-73
2021/06/09 15:00:53;;;;;;;0.40;0.30;;;18.70;99.90;;;;;;4991978;28;20778;-73
2021/06/09 15:03:19;;;;;;;0.40;0.30;;;18.50;99.90;;;;;;4991848;28;20442;-73
2021/06/09 15:05:45;;;;;;;0.40;0.23;;;18.40;99.90;;;;;;4991270;28;20775;-74
2021/06/09 15:08:11;;;;;;;0.40;0.30;;;18.20;99.90;;;;;;4991130;28;20410;-73
2021/06/09 15:10:38;;;;;;;0.40;0.30;;;18.20;99.90;;;;;;4991609;28;20399;-73
2021/06/09 15:13:04;;;;;;;0.40;0.20;;;18.10;99.90;;;;;;4990296;28;20418;-74
2021/06/09 15:15:30;;;;;;;0.40;0.30;;;18.00;99.90;;;;;;4992435;28;20402;-76
2021/06/09 15:17:55;;;;;;;0.40;0.30;;;18.00;99.90;;;;;;4991325;28;20389;-75
2021/06/09 15:20:21;;;;;;;0.40;0.30;;;18.00;99.90;;;;;;4992158;28;20390;-75
2021/06/09 15:22:47;;;;;;;0.40;0.20;;;18.00;99.90;;;;;;4990937;28;20923;-76
2021/06/09 15:25:13;;;;;;;0.40;0.20;;;17.90;99.90;;;;;;4991342;28;20401;-75
2021/06/09 15:27:39;;;;;;;0.40;0.28;;;17.90;99.90;;;;;;4991830;28;20390;-75
2021/06/09 15:30:07;;;;;;;0.40;0.30;;;17.80;99.90;;;;;;4991597;28;20467;-74
2021/06/09 15:32:32;;;;;;;0.40;0.30;;;17.70;99.90;;;;;;4992194;28;20390;-75
2021/06/09 15:34:58;;;;;;;0.40;0.30;;;17.70;99.90;;;;;;4991715;28;20862;-75
2021/06/09 15:37:24;;;;;;;0.40;0.30;;;17.70;99.90;;;;;;4992489;28;20378;-76
2021/06/09 15:39:49;;;;;;;0.40;0.20;;;17.60;99.90;;;;;;4991658;28;20394;-74
2021/06/09 15:42:15;;;;;;;0.40;0.30;;;17.60;99.90;;;;;;4991777;28;20385;-75
2021/06/09 15:44:41;;;;;;;0.40;0.30;;;17.50;99.90;;;;;;4992568;28;20405;-74
2021/06/09 15:47:07;;;;;;;0.40;0.30;;;17.50;99.90;;;;;;4992083;28;20390;-73
2021/06/09 15:49:33;;;;;;;0.40;0.20;;;17.40;99.90;;;;;;4992276;28;20425;-74
2021/06/09 15:52:00;;;;;;;0.40;0.30;;;17.30;99.90;;;;;;4991583;28;20387;-74
2021/06/09 15:54:28;;;;;;;0.40;0.20;;;17.30;99.90;;;;;;4992611;28;20391;-74
2021/06/09 15:56:55;;;;;;;0.40;0.25;;;17.30;99.90;;;;;;4991598;28;20395;-74
2021/06/09 15:59:21;;;;;;;0.40;0.40;;;17.10;99.90;;;;;;4992638;28;20850;-74
2021/06/09 16:01:47;;;;;;;0.40;0.20;;;17.10;99.90;;;;;;4992707;28;20442;-74
2021/06/09 16:04:13;;;;;;;0.40;0.20;;;17.10;99.90;;;;;;4991757;28;20458;-74
2021/06/09 16:06:39;;;;;;;0.40;0.30;;;17.10;99.90;;;;;;4992393;28;20391;-74
2021/06/09 16:09:08;;;;;;;0.40;0.30;;;17.20;99.90;;;;;;4991821;28;20407;-74
2021/06/09 16:11:34;;;;;;;0.40;0.20;;;17.10;99.90;;;;;;4992224;28;20899;-74
2021/06/09 16:14:00;;;;;;;0.40;0.20;;;17.10;99.90;;;;;;4991331;28;20486;-74
2021/06/09 16:16:25;;;;;;;0.40;0.20;;;17.10;99.90;;;;;;4991954;28;20403;-74
2021/06/09 16:18:51;;;;;;;0.40;0.30;;;17.10;99.90;;;;;;4991697;28;20394;-75
2021/06/09 16:21:17;;;;;;;0.40;0.20;;;17.20;99.90;;;;;;4991869;28;20386;-75
2021/06/09 16:23:42;;;;;;;0.40;0.20;;;17.20;99.90;;;;;;4991948;28;20410;-74
2021/06/09 16:26:08;;;;;;;0.40;0.30;;;17.30;99.90;;;;;;4991217;28;21038;-75
2021/06/09 16:28:34;;;;;;;0.40;0.30;;;17.30;99.90;;;;;;4992103;28;20508;-74
2021/06/09 16:31:00;;;;;;;0.40;0.30;;;17.40;99.90;;;;;;4991185;28;20886;-75
2021/06/09 16:33:26;;;;;;;0.40;0.30;;;17.40;99.90;;;;;;4991728;28;20528;-75
2021/06/09 16:35:52;;;;;;;0.40;0.30;;;17.60;99.90;;;;;;4991356;28;20469;-75
2021/06/09 16:38:18;;;;;;;0.40;0.30;;;17.60;99.90;;;;;;4991907;28;20399;-74
2021/06/09 16:40:44;;;;;;;0.40;0.20;;;17.70;99.90;;;;;;4992296;28;20937;-74
2021/06/09 16:43:11;;;;;;;0.40;0.20;;;17.80;99.90;;;;;;4991204;28;20670;-74
2021/06/09 16:45:37;;;;;;;0.40;0.20;;;17.80;99.90;;;;;;4991822;28;20379;-74
2021/06/09 16:48:04;;;;;;;0.40;0.20;;;17.80;99.90;;;;;;4990915;28;20433;-74
2021/06/09 16:50:30;;;;;;;0.40;0.20;;;17.80;99.90;;;;;;4991908;28;20398;-74
2021/06/09 16:52:56;;;;;;;0.40;0.20;;;17.80;99.90;;;;;;4991132;28;20802;-74
2021/06/09 16:55:29;;;;;;;0.40;0.20;;;17.90;99.90;;;;;;4991922;28;20390;-74
2021/06/09 17:00:45;;;;;;;0.40;0.30;;;18.10;99.90;;;;;;4991554;28;20438;-74
2021/06/09 17:03:15;;;;;;;0.40;0.30;;;18.00;99.90;;;;;;4990795;28;21039;-74
2021/06/09 17:05:50;;;;;;;0.40;0.20;;;18.10;99.90;;;;;;4992035;28;20441;-74
2021/06/09 17:08:17;;;;;;;0.40;0.30;;;18.10;99.90;;;;;;4991030;28;20422;-73
2021/06/09 17:10:44;;;;;;;0.40;0.30;;;18.10;99.90;;;;;;4991711;28;20393;-72
2021/06/09 17:13:11;;;;;;;0.40;0.27;;;18.10;99.90;;;;;;4980543;28;20388;-74
2021/06/09 17:15:36;;;;;;;0.40;0.30;;;18.10;99.90;;;;;;4981702;28;20473;-74
2021/06/09 17:18:04;;;;;;;0.50;0.40;;;18.00;99.90;;;;;;4973889;28;20748;-73
2021/06/09 17:20:29;;;;;;;0.40;0.20;;;18.00;99.90;;;;;;4977666;28;20477;-73
2021/06/09 17:22:55;;;;;;;0.40;0.30;;;17.90;99.90;;;;;;4975182;28;20900;-73
2021/06/09 17:25:21;;;;;;;0.40;0.20;;;18.00;99.90;;;;;;4974211;28;20395;-73
2021/06/09 17:27:46;;;;;;;0.40;0.20;;;17.90;99.90;;;;;;4971807;28;20475;-73
2021/06/09 17:30:12;;;;;;;0.40;0.20;;;17.90;99.90;;;;;;4973631;28;20500;-73
2021/06/09 17:32:38;;;;;;;0.40;0.30;;;17.80;99.90;;;;;;4973382;28;20883;-74
2021/06/09 17:35:05;;;;;;;0.40;0.20;;;17.80;99.90;;;;;;4977020;28;20388;-75
2021/06/09 17:37:31;;;;;;;0.40;0.20;;;17.70;99.90;;;;;;4973740;28;20393;-74
2021/06/09 17:39:58;;;;;;;0.40;0.30;;;17.70;99.90;;;;;;4977410;28;20392;-73
2021/06/09 17:42:24;;;;;;;0.40;0.20;;;17.60;99.90;;;;;;4981318;28;20878;-74
2021/06/09 17:44:50;;;;;;;0.40;0.28;;;17.60;99.90;;;;;;4976884;28;20400;-74
2021/06/09 17:47:15;;;;;;;0.40;0.20;;;17.60;99.90;;;;;;4976194;28;20396;-74
2021/06/09 17:49:41;;;;;;;0.40;0.30;;;17.60;99.90;;;;;;4980879;28;20419;-74
2021/06/09 17:52:07;;;;;;;0.40;0.20;;;17.70;99.90;;;;;;4976176;28;20395;-73
2021/06/09 17:54:32;;;;;;;0.40;0.20;;;17.70;99.90;;;;;;4980485;28;20382;-74
2021/06/09 17:56:58;;;;;;;0.40;0.20;;;17.70;99.90;;;;;;4989638;28;20395;-73
2021/06/09 17:59:24;;;;;;;0.40;0.30;;;17.80;99.90;;;;;;4980557;28;20486;-73
2021/06/09 18:04:22;;;;;;;0.40;0.20;;;17.90;99.90;;;;;;4976011;28;20395;-75
2021/06/09 18:06:47;;;;;;;0.40;0.30;;;17.80;99.90;;;;;;4977720;28;20393;-73
2021/06/09 18:09:13;;;;;;;0.40;0.30;;;18.00;99.90;;;;;;4984087;28;20411;-73
2021/06/09 18:11:39;;;;;;;0.40;0.20;;;17.90;99.90;;;;;;4984262;28;20929;-74
2021/06/09 18:14:05;;;;;;;0.40;0.20;;;17.90;99.90;;;;;;4972284;28;20493;-73
2021/06/09 18:16:31;;;;;;;0.40;0.30;;;17.90;99.90;;;;;;4971879;28;20439;-73
2021/06/09 18:18:57;;;;;;;0.40;0.20;;;17.90;99.90;;;;;;4975466;28;20424;-73
2021/06/09 18:21:22;;;;;;;0.40;0.20;;;17.90;99.90;;;;;;4963551;28;20394;-72
2021/06/09 18:23:48;;;;;;;0.40;0.20;;;17.90;99.90;;;;;;4978933;28;20937;-73
2021/06/09 18:26:14;;;;;;;0.40;0.20;;;17.70;99.90;;;;;;4980705;28;20867;-73
2021/06/09 18:28:41;;;;;;;0.40;0.30;;;17.70;99.90;;;;;;4980963;28;20419;-73
2021/06/09 18:31:07;;;;;;;0.40;0.20;;;17.70;99.90;;;;;;4971158;28;20475;-73
2021/06/09 18:33:32;;;;;;;0.40;0.30;;;17.60;99.90;;;;;;4976620;28;20538;-73
2021/06/09 18:35:58;;;;;;;0.40;0.20;;;17.60;99.90;;;;;;4983635;28;20457;-73
2021/06/09 18:38:25;;;;;;;0.40;0.20;;;17.60;99.90;;;;;;4976864;28;20404;-73
2021/06/09 18:40:51;;;;;;;0.40;0.20;;;17.70;99.90;;;;;;4984670;28;20403;-73
2021/06/09 18:43:17;;;;;;;0.40;0.20;;;17.60;99.90;;;;;;4977081;28;20388;-73
2021/06/09 18:45:43;;;;;;;0.40;0.20;;;17.60;99.90;;;;;;4985121;28;20792;-73
2021/06/09 18:48:10;;;;;;;0.40;0.20;;;17.50;99.90;;;;;;4974800;28;20772;-73
2021/06/09 18:50:36;;;;;;;0.40;0.20;;;17.50;99.90;;;;;;4970546;28;20392;-74
2021/06/09 18:53:02;;;;;;;0.40;0.20;;;17.40;99.90;;;;;;4970766;28;20396;-74
2021/06/09 18:55:29;;;;;;;0.40;0.30;;;17.40;99.90;;;;;;4969442;28;20402;-72
2021/06/09 18:57:56;;;;;;;0.40;0.20;;;17.40;99.90;;;;;;4971366;28;20451;-72
2021/06/09 19:00:29;;;;;;;0.40;0.20;;;17.40;99.90;;;;;;4970258;28;20408;-74
2021/06/09 19:02:55;;;;;;;0.40;0.30;;;17.30;99.90;;;;;;4969264;28;20388;-73
2021/06/09 19:05:21;;;;;;;0.40;0.20;;;17.30;99.90;;;;;;4969564;28;20466;-73
2021/06/09 19:07:48;;;;;;;0.40;0.20;;;17.30;99.90;;;;;;4970557;28;20428;-74
2021/06/09 19:10:21;;;;;;;0.40;0.20;;;17.30;99.90;;;;;;4978232;28;20482;-73
2021/06/09 19:12:47;;;;;;;0.40;0.30;;;17.30;99.90;;;;;;4992605;28;20494;-74
2021/06/09 19:15:14;;;;;;;0.40;0.20;;;17.20;99.90;;;;;;4991986;28;20414;-73
2021/06/09 19:17:42;;;;;;;0.40;0.30;;;17.10;99.90;;;;;;4992847;28;20453;-73
2021/06/09 19:20:09;;;;;;;0.40;0.30;;;17.00;99.90;;;;;;4989984;28;20449;-72
2021/06/09 19:22:36;;;;;;;0.40;0.30;;;17.00;99.90;;;;;;4989443;28;20395;-73
2021/06/09 19:25:05;;;;;;;0.40;0.20;;;17.00;99.90;;;;;;4990777;28;20453;-75
2021/06/09 19:27:31;;;;;;;0.40;0.30;;;16.90;99.90;;;;;;4986929;28;20399;-73
2021/06/09 19:29:57;;;;;;;0.40;0.20;;;16.90;99.90;;;;;;4985032;28;20411;-73
2021/06/09 19:32:23;;;;;;;0.40;0.30;;;16.90;99.90;;;;;;4981845;28;21043;-73
2021/06/09 19:34:48;;;;;;;0.40;0.30;;;17.00;99.90;;;;;;4985613;28;20477;-73
2021/06/09 19:37:16;;;;;;;0.40;0.30;;;17.00;99.90;;;;;;4982442;28;20406;-73
2021/06/09 19:39:43;;;;;;;0.40;0.20;;;16.90;99.90;;;;;;4977576;28;20434;-72
2021/06/09 19:42:09;;;;;;;0.40;0.30;;;17.00;99.90;;;;;;4981283;28;20871;-73
2021/06/09 19:44:35;;;;;;;0.40;0.30;;;17.00;99.90;;;;;;4989411;28;20465;-73
2021/06/09 19:47:02;;;;;;;0.40;0.40;;;17.00;99.90;;;;;;4981553;28;20400;-75
2021/06/09 19:49:28;;;;;;;0.40;0.30;;;17.00;99.90;;;;;;4956272;28;20420;-73
2021/06/09 19:51:54;;;;;;;0.40;0.20;;;16.90;99.90;;;;;;4983579;28;20399;-74
2021/06/09 19:54:21;;;;;;;0.40;0.20;;;16.90;99.90;;;;;;4975341;28;20467;-73
2021/06/09 19:56:47;;;;;;;0.40;0.20;;;16.90;99.90;;;;;;4986880;28;20394;-73
2021/06/09 19:59:14;;;;;;;0.40;0.20;;;16.90;99.90;;;;;;4983909;28;20977;-73
2021/06/09 20:01:40;;;;;;;0.40;0.20;;;16.90;99.90;;;;;;4980102;28;20386;-75
2021/06/09 20:04:05;;;;;;;0.40;0.20;;;16.90;99.90;;;;;;4975147;28;20446;-75
2021/06/09 20:06:32;;;;;;;0.40;0.20;;;16.90;99.90;;;;;;4987803;28;20391;-73
2021/06/09 20:08:58;;;;;;;0.40;0.40;;;16.90;99.90;;;;;;4975884;28;20914;-73
2021/06/09 20:11:24;;;;;;;0.40;0.20;;;16.80;99.90;;;;;;4975514;28;20374;-74
2021/06/09 20:13:51;;;;;;;0.40;0.30;;;16.80;99.90;;;;;;4977903;28;20426;-73
2021/06/09 20:16:16;;;;;;;0.40;0.30;;;16.80;99.90;;;;;;4978365;28;20387;-73
2021/06/09 20:18:43;;;;;;;0.40;0.20;;;16.60;99.90;;;;;;4978501;28;20394;-73
2021/06/09 20:21:09;;;;;;;0.40;0.20;;;16.70;99.90;;;;;;4989818;28;20386;-73
2021/06/09 20:23:36;;;;;;;0.40;0.20;;;16.70;99.90;;;;;;4991123;28;20477;-73
2021/06/09 20:28:48;;;;;;;0.40;0.30;;;16.60;99.90;;;;;;4990673;28;20456;-73
2021/06/09 20:31:14;;;;;;;0.40;0.30;;;16.50;99.90;;;;;;4988973;28;20747;-73
2021/06/09 20:33:40;;;;;;;0.40;0.20;;;16.50;99.90;;;;;;4990417;28;20481;-73
2021/06/09 20:36:06;;;;;;;0.40;0.20;;;16.50;99.90;;;;;;4989861;28;20525;-75
2021/06/09 20:38:34;;;;;;;0.40;0.20;;;16.60;99.90;;;;;;4989852;28;20421;-73
2021/06/09 20:41:00;;;;;;;0.40;0.30;;;16.50;99.90;;;;;;4990873;28;20394;-72
2021/06/09 20:43:26;;;;;;;0.40;0.20;;;16.50;99.90;;;;;;4989835;28;20410;-72
2021/06/09 20:45:53;;;;;;;0.40;0.30;;;16.40;99.90;;;;;;4990864;28;20831;-73
2021/06/09 20:48:19;;;;;;;0.40;0.30;;;16.40;99.90;;;;;;4980801;28;20419;-73
2021/06/09 20:50:47;;;;;;;0.40;0.22;;;16.40;99.90;;;;;;4990905;28;20401;-74
2021/06/09 20:53:13;;;;;;;0.40;0.20;;;16.30;99.90;;;;;;4988302;28;20622;-73
2021/06/09 20:55:43;;;;;;;0.40;0.20;;;16.20;99.90;;;;;;4987727;28;20386;-73
2021/06/09 20:58:09;;;;;;;0.40;0.20;;;16.10;99.90;;;;;;4986642;28;20731;-74
2021/06/09 21:00:35;;;;;;;0.40;0.20;;;16.20;99.90;;;;;;4990711;28;20392;-73
2021/06/09 21:03:03;;;;;;;0.40;0.20;;;16.20;99.90;;;;;;4990681;28;20414;-73
2021/06/09 21:05:29;;;;;;;0.40;0.20;;;16.10;99.90;;;;;;4989710;28;20386;-72
2021/06/09 21:07:54;;;;;;;0.40;0.30;;;16.00;99.90;;;;;;4990461;28;20390;-73
2021/06/09 21:10:20;;;;;;;0.40;0.20;;;16.10;99.90;;;;;;4990328;28;20390;-72
2021/06/09 21:12:46;;;;;;;0.40;0.20;;;16.00;99.90;;;;;;4984726;28;20399;-72
2021/06/09 21:15:13;;;;;;;0.40;0.20;;;16.00;99.90;;;;;;4993518;28;20416;-73
2021/06/09 21:17:39;;;;;;;0.40;0.30;;;16.00;99.90;;;;;;4994717;28;20890;-72
2021/06/09 21:20:06;;;;;;;0.40;0.20;;;16.10;99.90;;;;;;4995104;28;20386;-72
2021/06/09 21:22:32;;;;;;;0.40;0.20;;;15.90;99.90;;;;;;4994429;28;20402;-72
2021/06/09 21:24:58;;;;;;;0.40;0.20;;;15.90;99.90;;;;;;4994871;28;20382;-72
2021/06/09 21:27:24;;;;;;;0.40;0.20;;;15.80;99.90;;;;;;4993990;28;20452;-72
2021/06/09 21:29:50;;;;;;;0.40;0.20;;;15.70;99.90;;;;;;4994803;28;20410;-72
2021/06/09 21:32:15;;;;;;;0.40;0.20;;;15.80;99.90;;;;;;4994140;28;20843;-72
2021/06/09 21:34:41;;;;;;;0.40;0.20;;;15.70;99.90;;;;;;4994804;28;20877;-73
2021/06/09 21:37:07;;;;;;;0.40;0.30;;;15.80;99.90;;;;;;4994849;28;20378;-74
2021/06/09 21:39:32;;;;;;;0.40;0.20;;;15.60;99.90;;;;;;4994020;28;20394;-73
2021/06/09 21:41:58;;;;;;;0.40;0.30;;;15.70;99.90;;;;;;4994782;28;20375;-72
2021/06/09 21:44:24;;;;;;;0.40;0.22;;;15.70;99.90;;;;;;4993110;28;20409;-73
2021/06/09 21:46:49;;;;;;;0.40;0.20;;;15.70;99.90;;;;;;4994388;28;20481;-73
2021/06/09 21:49:17;;;;;;;0.40;0.30;;;15.60;99.90;;;;;;4994000;28;20505;-73
2021/06/09 21:51:47;;;;;;;0.40;0.30;;;15.60;99.90;;;;;;4994540;28;20401;-72
2021/06/09 21:54:14;;;;;;;0.40;0.30;;;15.50;99.90;;;;;;4993813;28;20742;-73
2021/06/09 21:56:40;;;;;;;0.40;0.30;;;15.60;99.90;;;;;;4993800;28;20393;-72
2021/06/09 21:59:05;;;;;;;0.40;0.30;;;15.50;99.90;;;;;;4992859;28;20411;-72
2021/06/09 22:01:31;;;;;;;0.40;0.30;;;15.50;99.90;;;;;;4977366;28;20388;-72
2021/06/09 22:03:57;;;;;;;0.40;0.30;;;15.50;99.90;;;;;;4979895;28;20511;-72
2021/06/09 22:06:22;;;;;;;0.40;0.30;;;15.50;99.90;;;;;;4982282;28;20388;-74
2021/06/09 22:08:48;;;;;;;0.40;0.30;;;15.50;99.90;;;;;;4974879;28;20876;-73
2021/06/09 22:11:14;;;;;;;0.40;0.20;;;15.40;99.90;;;;;;4984349;28;20384;-73
2021/06/09 22:13:40;;;;;;;0.40;0.20;;;15.50;99.90;;;;;;4984427;28;20911;-72
2021/06/09 22:16:06;;;;;;;0.40;0.30;;;15.40;99.90;;;;;;4974929;28;20384;-72
2021/06/09 22:18:32;;;;;;;0.40;0.30;;;15.40;99.90;;;;;;4982050;28;20388;-73
2021/06/09 22:20:58;;;;;;;0.40;0.20;;;15.30;99.90;;;;;;4973218;28;20392;-73
2021/06/09 22:23:24;;;;;;;0.40;0.20;;;15.20;99.90;;;;;;4984070;28;20804;-72
2021/06/09 22:25:50;;;;;;;0.40;0.20;;;15.30;99.90;;;;;;4986499;28;20420;-73
2021/06/09 22:28:16;;;;;;;0.40;0.20;;;15.30;99.90;;;;;;4981311;28;20415;-74
2021/06/09 22:30:41;;;;;;;0.40;0.23;;;15.20;99.90;;;;;;4978771;28;20391;-72
2021/06/09 22:33:08;;;;;;;0.40;0.20;;;15.20;99.90;;;;;;4980046;28;20388;-74
2021/06/09 22:35:34;;;;;;;0.40;0.30;;;15.20;99.90;;;;;;4989996;28;20521;-73
2021/06/09 22:38:00;;;;;;;0.40;0.30;;;15.20;99.90;;;;;;4986823;28;20382;-73
2021/06/09 22:40:26;;;;;;;0.40;0.20;;;15.10;99.90;;;;;;4978703;28;20383;-73
2021/06/09 22:42:52;;;;;;;0.50;0.40;;;15.10;99.90;;;;;;4986064;28;20474;-73
2021/06/09 22:45:18;;;;;;;0.40;0.20;;;15.10;99.90;;;;;;4972572;28;20414;-73
2021/06/09 22:47:44;;;;;;;0.40;0.30;;;15.10;99.90;;;;;;4973104;28;20420;-72
2021/06/09 22:50:10;;;;;;;0.40;0.30;;;15.10;99.90;;;;;;4982721;28;20458;-74
2021/06/09 22:52:36;;;;;;;0.40;0.30;;;15.00;99.90;;;;;;4977041;28;20551;-73
2021/06/09 22:55:09;;;;;;;0.40;0.30;;;15.00;99.90;;;;;;4982565;28;20396;-73
2021/06/09 22:57:35;;;;;;;0.40;0.30;;;14.90;99.90;;;;;;4976072;28;21092;-75
2021/06/09 23:00:01;;;;;;;0.40;0.30;;;14.90;99.90;;;;;;4994952;28;20506;-73
2021/06/09 23:02:26;;;;;;;0.40;0.20;;;14.90;99.90;;;;;;4992344;28;20445;-73
2021/06/09 23:04:52;;;;;;;0.40;0.20;;;14.90;99.90;;;;;;4993129;28;20505;-73
2021/06/09 23:07:18;;;;;;;0.40;0.28;;;14.80;99.90;;;;;;4992275;28;20797;-74
2021/06/09 23:09:43;;;;;;;0.40;0.20;;;14.80;99.90;;;;;;4993096;28;20561;-73
2021/06/09 23:12:09;;;;;;;0.40;0.30;;;14.80;99.90;;;;;;4992350;28;20465;-73
2021/06/09 23:14:35;;;;;;;0.40;0.20;;;14.70;99.90;;;;;;4975245;28;20425;-73
2021/06/09 23:17:02;;;;;;;0.40;0.30;;;14.70;99.90;;;;;;4954214;29;20441;-73
2021/06/09 23:19:27;;;;;;;0.40;0.30;;;14.70;99.90;;;;;;4953431;28;20428;-73
2021/06/09 23:21:53;;;;;;;0.40;0.20;;;14.70;99.90;;;;;;4954346;29;20425;-73
2021/06/09 23:24:19;;;;;;;0.40;0.30;;;14.70;99.90;;;;;;4952927;29;20401;-74
2021/06/09 23:26:44;;;;;;;0.40;0.20;;;14.70;99.90;;;;;;4954435;29;20843;-73
2021/06/09 23:29:10;;;;;;;0.40;0.30;;;14.70;99.90;;;;;;4952771;29;20421;-73
2021/06/09 23:31:36;;;;;;;0.40;0.28;;;14.60;99.90;;;;;;4953210;29;20386;-73
2021/06/09 23:34:02;;;;;;;0.40;0.30;;;14.70;99.90;;;;;;4953325;28;20398;-72
2021/06/09 23:36:27;;;;;;;0.40;0.20;;;14.60;99.90;;;;;;4953105;28;20700;-72
2021/06/09 23:38:53;;;;;;;0.40;0.20;;;14.60;99.90;;;;;;4953596;28;20822;-72
2021/06/09 23:41:20;;;;;;;0.40;0.30;;;14.50;99.90;;;;;;4952819;28;20390;-73
2021/06/09 23:43:46;;;;;;;0.40;0.20;;;14.50;99.90;;;;;;4953781;29;20492;-72
2021/06/09 23:46:12;;;;;;;0.40;0.30;;;14.50;99.90;;;;;;4953582;28;20390;-72
2021/06/09 23:48:38;;;;;;;0.40;0.30;;;14.40;99.90;;;;;;4952666;28;20421;-73
2021/06/09 23:53:30;;;;;;;0.40;0.40;;;14.50;99.90;;;;;;4952238;28;20464;-73
2021/06/09 23:55:57;;;;;;;0.40;0.20;;;14.40;99.90;;;;;;4953743;28;20398;-72
2021/06/09 23:58:24;;;;;;;0.40;0.20;;;14.40;99.90;;;;;;4952707;29;20402;-73
